sensor_id;sensor_type;location;lat;lon;timestamp;temperature;humidity
9772;DHT22;4925;52.588;13.370;2023-06-14T00:03:27;17.20;99.90
9772;DHT22;4925;52.588;13.370;2023-06-14T00:05:53;17.20;99.90
9772;DHT22;4925;52.588;13.370;2023-06-14T00:08:18;17.10;99.90
9772;DHT22;4925;52.588;13.370;2023-06-14T00:10:46;17.10;99.90
9772;DHT22;4925;52.588;13.370;2023-06-14T00:13:12;17.10;99.90
9772;DHT22;4925;52.588;13.370;2023-06-14T00:15:38;17.00;99.90
9772;DHT22;4925;52.588;13.370;2023-06-14T00:18:04;16.90;99.90
9772;DHT22;4925;52.588;13.370;2023-06-14T00:20:32;16.90;99.90
9772;DHT22;4925;52.588;13.370;2023-06-14T00:23:01;16.90;99.90
9772;DHT22;4925;52.588;13.370;2023-06-14T00:25:27;16.90;99.90
9772;DHT22;4925;52.588;13.370;2023-06-14T00:27:54;16.90;99.90
9772;DHT22;4925;52.588;13.370;2023-06-14T00:30:20;16.90;99.90
9772;DHT22;4925;52.588;13.370;2023-06-14T00:32:46;16.90;99.90
9772;DHT22;4925;52.588;13.370;2023-06-14T00:35:12;16.90;99.90
9772;DHT22;4925;52.588;13.370;2023-06-14T00:37:38;16.90;99.90
9772;DHT22;4925;52.588;13.370;2023-06-14T00:40:04;16.90;99.90
9772;DHT22;4925;52.588;13.370;2023-06-14T00:42:31;16.90;99.90
9772;DHT22;4925;52.588;13.370;2023-06-14T00:44:57;16.80;99.90
9772;DHT22;4925;52.588;13.370;2023-06-14T00:47:23;16.80;99.90
9772;DHT22;4925;52.588;13.370;2023-06-14T00:49:50;16.70;99.90
9772;DHT22;4925;52.588;13.370;2023-06-14T00:52:19;16.60;99.90
9772;DHT22;4925;52.588;13.370;2023-06-14T00:54:46;16.60;99.90
9772;DHT22;4925;52.588;13.370;2023-06-14T00:57:12;16.50;99.90
9772;DHT22;4925;52.588;13.370;2023-06-14T00:59:46;16.50;99.90
9772;DHT22;4925;52.588;13.370;2023-06-14T01:02:13;16.50;99.90
9772;DHT22;4925;52.588;13.370;2023-06-14T01:04:41;16.40;99.90
9772;DHT22;4925;52.588;13.370;2023-06-14T01:10:08;16.40;99.90
9772;DHT22;4925;52.588;13.370;2023-06-14T01:15:31;16.40;99.90
9772;DHT22;4925;52.588;13.370;2023-06-14T01:17:57;16.40;99.90
9772;DHT22;4925;52.588;13.370;2023-06-14T01:20:29;16.40;99.90
9772;DHT22;4925;52.588;13.370;2023-06-14T01:22:56;16.40;99.90
9772;DHT22;4925;52.588;13.370;2023-06-14T01:25:22;16.40;99.90
9772;DHT22;4925;52.588;13.370;2023-06-14T01:27:49;16.40;99.90
9772;DHT22;4925;52.588;13.370;2023-06-14T01:30:17;16.30;99.90
9772;DHT22;4925;52.588;13.370;2023-06-14T01:32:43;16.30;99.90
9772;DHT22;4925;52.588;13.370;2023-06-14T01:35:10;16.20;99.90
9772;DHT22;4925;52.588;13.370;2023-06-14T01:37:36;16.10;99.90
9772;DHT22;4925;52.588;13.370;2023-06-14T01:40:04;16.10;99.90
9772;DHT22;4925;52.588;13.370;2023-06-14T01:42:34;16.00;99.90
9772;DHT22;4925;52.588;13.370;2023-06-14T01:45:02;16.00;99.90
9772;DHT22;4925;52.588;13.370;2023-06-14T01:47:29;16.00;99.90
9772;DHT22;4925;52.588;13.370;2023-06-14T01:49:55;15.90;99.90
9772;DHT22;4925;52.588;13.370;2023-06-14T01:52:21;15.90;99.90
9772;DHT22;4925;52.588;13.370;2023-06-14T01:54:47;15.80;99.90
9772;DHT22;4925;52.588;13.370;2023-06-14T01:57:15;15.80;99.90
9772;DHT22;4925;52.588;13.370;2023-06-14T01:59:40;15.80;99.90
9772;DHT22;4925;52.588;13.370;2023-06-14T02:02:06;15.70;99.90
9772;DHT22;4925;52.588;13.370;2023-06-14T02:04:33;15.60;99.90
9772;DHT22;4925;52.588;13.370;2023-06-14T02:06:59;15.70;99.90
9772;DHT22;4925;52.588;13.370;2023-06-14T02:09:25;15.60;99.90
9772;DHT22;4925;52.588;13.370;2023-06-14T02:11:51;15.50;99.90
9772;DHT22;4925;52.588;13.370;2023-06-14T02:14:16;15.50;99.90
9772;DHT22;4925;52.588;13.370;2023-06-14T02:16:43;15.50;99.90
9772;DHT22;4925;52.588;13.370;2023-06-14T02:19:18;15.40;99.90
9772;DHT22;4925;52.588;13.370;2023-06-14T02:21:45;15.40;99.90
9772;DHT22;4925;52.588;13.370;2023-06-14T02:24:10;15.40;99.90
9772;DHT22;4925;52.588;13.370;2023-06-14T02:26:37;15.30;99.90
9772;DHT22;4925;52.588;13.370;2023-06-14T02:29:09;15.20;99.90
9772;DHT22;4925;52.588;13.370;2023-06-14T02:31:36;15.20;99.90
9772;DHT22;4925;52.588;13.370;2023-06-14T02:34:02;15.20;99.90
9772;DHT22;4925;52.588;13.370;2023-06-14T02:36:28;15.20;99.90
9772;DHT22;4925;52.588;13.370;2023-06-14T02:38:57;15.20;99.90
9772;DHT22;4925;52.588;13.370;2023-06-14T02:41:26;15.20;99.90
9772;DHT22;4925;52.588;13.370;2023-06-14T02:43:52;15.20;99.90
9772;DHT22;4925;52.588;13.370;2023-06-14T02:46:18;15.10;99.90
9772;DHT22;4925;52.588;13.370;2023-06-14T02:48:44;15.00;99.90
9772;DHT22;4925;52.588;13.370;2023-06-14T02:51:09;15.00;99.90
9772;DHT22;4925;52.588;13.370;2023-06-14T02:53:36;15.00;99.90
9772;DHT22;4925;52.588;13.370;2023-06-14T02:56:02;15.00;99.90
9772;DHT22;4925;52.588;13.370;2023-06-14T02:58:29;14.90;99.90
9772;DHT22;4925;52.588;13.370;2023-06-14T03:00:55;14.90;99.90
9772;DHT22;4925;52.588;13.370;2023-06-14T03:03:21;14.90;99.90
9772;DHT22;4925;52.588;13.370;2023-06-14T03:05:49;14.90;99.90
9772;DHT22;4925;52.588;13.370;2023-06-14T03:08:16;14.90;99.90
9772;DHT22;4925;52.588;13.370;2023-06-14T03:10:45;14.90;99.90
9772;DHT22;4925;52.588;13.370;2023-06-14T03:13:15;14.90;99.90
9772;DHT22;4925;52.588;13.370;2023-06-14T03:15:44;14.90;99.90
9772;DHT22;4925;52.588;13.370;2023-06-14T03:18:10;15.00;99.90
9772;DHT22;4925;52.588;13.370;2023-06-14T03:20:38;15.00;99.90
9772;DHT22;4925;52.588;13.370;2023-06-14T03:23:04;15.00;99.90
9772;DHT22;4925;52.588;13.370;2023-06-14T03:25:31;15.10;99.90
9772;DHT22;4925;52.588;13.370;2023-06-14T03:27:58;15.10;99.90
9772;DHT22;4925;52.588;13.370;2023-06-14T03:30:24;15.10;99.90
9772;DHT22;4925;52.588;13.370;2023-06-14T03:32:50;15.00;99.90
9772;DHT22;4925;52.588;13.370;2023-06-14T03:35:18;15.00;99.90
9772;DHT22;4925;52.588;13.370;2023-06-14T03:37:45;15.00;99.90
9772;DHT22;4925;52.588;13.370;2023-06-14T03:40:12;15.10;99.90
9772;DHT22;4925;52.588;13.370;2023-06-14T03:42:38;15.10;99.90
9772;DHT22;4925;52.588;13.370;2023-06-14T03:45:04;15.10;99.90
9772;DHT22;4925;52.588;13.370;2023-06-14T03:47:30;15.10;99.90
9772;DHT22;4925;52.588;13.370;2023-06-14T03:49:56;15.10;99.90
9772;DHT22;4925;52.588;13.370;2023-06-14T03:52:21;15.20;99.90
9772;DHT22;4925;52.588;13.370;2023-06-14T03:54:48;15.40;99.90
9772;DHT22;4925;52.588;13.370;2023-06-14T03:57:15;15.40;99.90
9772;DHT22;4925;52.588;13.370;2023-06-14T03:59:40;15.50;99.90
9772;DHT22;4925;52.588;13.370;2023-06-14T04:02:07;15.60;99.90
9772;DHT22;4925;52.588;13.370;2023-06-14T04:04:33;15.60;99.90
9772;DHT22;4925;52.588;13.370;2023-06-14T04:07:01;15.60;99.90
9772;DHT22;4925;52.588;13.370;2023-06-14T04:09:29;15.70;99.90
9772;DHT22;4925;52.588;13.370;2023-06-14T04:11:55;15.70;99.90
9772;DHT22;4925;52.588;13.370;2023-06-14T04:14:21;15.70;99.90
9772;DHT22;4925;52.588;13.370;2023-06-14T04:16:48;15.70;99.90
9772;DHT22;4925;52.588;13.370;2023-06-14T04:19:15;15.70;99.90
9772;DHT22;4925;52.588;13.370;2023-06-14T04:21:41;15.80;99.90
9772;DHT22;4925;52.588;13.370;2023-06-14T04:24:07;15.90;99.90
9772;DHT22;4925;52.588;13.370;2023-06-14T04:26:43;15.90;99.90
9772;DHT22;4925;52.588;13.370;2023-06-14T04:29:14;15.90;99.90
9772;DHT22;4925;52.588;13.370;2023-06-14T04:31:42;16.00;99.90
9772;DHT22;4925;52.588;13.370;2023-06-14T04:34:08;16.10;99.90
9772;DHT22;4925;52.588;13.370;2023-06-14T04:36:34;16.20;99.90
9772;DHT22;4925;52.588;13.370;2023-06-14T04:39:03;16.30;99.90
9772;DHT22;4925;52.588;13.370;2023-06-14T04:41:30;16.40;99.90
9772;DHT22;4925;52.588;13.370;2023-06-14T04:43:56;16.50;99.90
9772;DHT22;4925;52.588;13.370;2023-06-14T04:46:27;16.50;99.90
9772;DHT22;4925;52.588;13.370;2023-06-14T04:48:53;16.70;99.90
9772;DHT22;4925;52.588;13.370;2023-06-14T04:51:19;16.80;99.90
9772;DHT22;4925;52.588;13.370;2023-06-14T04:53:47;16.90;99.90
9772;DHT22;4925;52.588;13.370;2023-06-14T04:56:15;16.90;99.90
9772;DHT22;4925;52.588;13.370;2023-06-14T04:58:42;17.00;99.90
9772;DHT22;4925;52.588;13.370;2023-06-14T05:01:09;17.00;99.90
9772;DHT22;4925;52.588;13.370;2023-06-14T05:03:34;17.00;99.90
9772;DHT22;4925;52.588;13.370;2023-06-14T05:06:00;17.00;99.90
9772;DHT22;4925;52.588;13.370;2023-06-14T05:08:26;17.00;99.90
9772;DHT22;4925;52.588;13.370;2023-06-14T05:10:52;16.90;99.90
9772;DHT22;4925;52.588;13.370;2023-06-14T05:13:18;17.00;99.90
9772;DHT22;4925;52.588;13.370;2023-06-14T05:15:44;16.90;99.90
9772;DHT22;4925;52.588;13.370;2023-06-14T05:18:10;17.00;99.90
9772;DHT22;4925;52.588;13.370;2023-06-14T05:20:36;17.00;99.90
9772;DHT22;4925;52.588;13.370;2023-06-14T05:23:03;17.10;99.90
9772;DHT22;4925;52.588;13.370;2023-06-14T05:25:28;17.20;99.90
9772;DHT22;4925;52.588;13.370;2023-06-14T05:27:54;17.30;99.90
9772;DHT22;4925;52.588;13.370;2023-06-14T05:30:20;17.40;99.90
9772;DHT22;4925;52.588;13.370;2023-06-14T05:32:46;17.50;99.90
9772;DHT22;4925;52.588;13.370;2023-06-14T05:35:11;17.60;99.90
9772;DHT22;4925;52.588;13.370;2023-06-14T05:37:37;17.70;99.90
9772;DHT22;4925;52.588;13.370;2023-06-14T05:40:04;17.70;99.90
9772;DHT22;4925;52.588;13.370;2023-06-14T05:42:31;17.80;99.90
9772;DHT22;4925;52.588;13.370;2023-06-14T05:44:57;17.80;99.90
9772;DHT22;4925;52.588;13.370;2023-06-14T05:47:23;17.80;99.90
9772;DHT22;4925;52.588;13.370;2023-06-14T05:49:48;17.90;99.90
9772;DHT22;4925;52.588;13.370;2023-06-14T05:52:14;18.00;99.90
9772;DHT22;4925;52.588;13.370;2023-06-14T05:54:40;18.10;99.90
9772;DHT22;4925;52.588;13.370;2023-06-14T05:57:06;18.20;99.90
9772;DHT22;4925;52.588;13.370;2023-06-14T05:59:32;18.20;99.90
9772;DHT22;4925;52.588;13.370;2023-06-14T06:01:58;18.30;99.90
9772;DHT22;4925;52.588;13.370;2023-06-14T06:04:23;18.50;99.90
9772;DHT22;4925;52.588;13.370;2023-06-14T06:06:49;18.50;99.90
9772;DHT22;4925;52.588;13.370;2023-06-14T06:09:15;18.60;99.90
9772;DHT22;4925;52.588;13.370;2023-06-14T06:11:41;18.70;99.90
9772;DHT22;4925;52.588;13.370;2023-06-14T06:14:06;18.80;99.90
9772;DHT22;4925;52.588;13.370;2023-06-14T06:16:32;18.80;99.90
9772;DHT22;4925;52.588;13.370;2023-06-14T06:18:59;18.90;99.90
9772;DHT22;4925;52.588;13.370;2023-06-14T06:21:24;18.80;99.90
9772;DHT22;4925;52.588;13.370;2023-06-14T06:23:50;18.70;99.90
9772;DHT22;4925;52.588;13.370;2023-06-14T06:26:16;18.80;99.90
9772;DHT22;4925;52.588;13.370;2023-06-14T06:28:42;18.80;99.90
9772;DHT22;4925;52.588;13.370;2023-06-14T06:31:07;18.80;99.90
9772;DHT22;4925;52.588;13.370;2023-06-14T06:33:33;18.90;99.90
9772;DHT22;4925;52.588;13.370;2023-06-14T06:35:58;18.90;99.90
9772;DHT22;4925;52.588;13.370;2023-06-14T06:38:24;18.90;99.90
9772;DHT22;4925;52.588;13.370;2023-06-14T06:40:50;18.80;99.90
9772;DHT22;4925;52.588;13.370;2023-06-14T06:43:16;18.80;99.90
9772;DHT22;4925;52.588;13.370;2023-06-14T06:45:43;18.80;99.90
9772;DHT22;4925;52.588;13.370;2023-06-14T06:48:08;18.70;99.90
9772;DHT22;4925;52.588;13.370;2023-06-14T06:50:37;18.70;99.90
9772;DHT22;4925;52.588;13.370;2023-06-14T06:53:03;18.80;99.90
9772;DHT22;4925;52.588;13.370;2023-06-14T06:55:28;18.90;99.90
9772;DHT22;4925;52.588;13.370;2023-06-14T06:57:54;18.90;99.90
9772;DHT22;4925;52.588;13.370;2023-06-14T07:00:20;19.00;99.90
9772;DHT22;4925;52.588;13.370;2023-06-14T07:02:46;19.20;99.90
9772;DHT22;4925;52.588;13.370;2023-06-14T07:05:13;19.30;99.90
9772;DHT22;4925;52.588;13.370;2023-06-14T07:07:38;19.40;99.90
9772;DHT22;4925;52.588;13.370;2023-06-14T07:10:04;19.60;99.90
9772;DHT22;4925;52.588;13.370;2023-06-14T07:12:31;19.70;99.90
9772;DHT22;4925;52.588;13.370;2023-06-14T07:14:59;19.90;99.90
9772;DHT22;4925;52.588;13.370;2023-06-14T07:17:25;19.90;99.90
9772;DHT22;4925;52.588;13.370;2023-06-14T07:19:51;20.00;99.90
9772;DHT22;4925;52.588;13.370;2023-06-14T07:22:18;19.90;99.90
9772;DHT22;4925;52.588;13.370;2023-06-14T07:24:44;19.80;99.90
9772;DHT22;4925;52.588;13.370;2023-06-14T07:27:10;19.90;99.90
9772;DHT22;4925;52.588;13.370;2023-06-14T07:29:36;20.00;99.90
9772;DHT22;4925;52.588;13.370;2023-06-14T07:32:02;20.10;99.90
9772;DHT22;4925;52.588;13.370;2023-06-14T07:34:28;20.20;99.90
9772;DHT22;4925;52.588;13.370;2023-06-14T07:36:54;20.30;99.90
9772;DHT22;4925;52.588;13.370;2023-06-14T07:39:19;20.30;99.90
9772;DHT22;4925;52.588;13.370;2023-06-14T07:41:45;20.40;99.90
9772;DHT22;4925;52.588;13.370;2023-06-14T07:44:11;20.50;99.90
9772;DHT22;4925;52.588;13.370;2023-06-14T07:46:38;20.60;99.90
9772;DHT22;4925;52.588;13.370;2023-06-14T07:49:04;20.70;99.90
9772;DHT22;4925;52.588;13.370;2023-06-14T07:51:30;20.80;99.90
9772;DHT22;4925;52.588;13.370;2023-06-14T07:53:56;21.00;99.90
9772;DHT22;4925;52.588;13.370;2023-06-14T07:56:21;21.20;99.90
9772;DHT22;4925;52.588;13.370;2023-06-14T07:58:48;21.40;99.90
9772;DHT22;4925;52.588;13.370;2023-06-14T08:01:14;21.60;99.90
9772;DHT22;4925;52.588;13.370;2023-06-14T08:03:40;21.70;99.90
9772;DHT22;4925;52.588;13.370;2023-06-14T08:06:06;21.80;99.90
9772;DHT22;4925;52.588;13.370;2023-06-14T08:08:33;21.90;99.90
9772;DHT22;4925;52.588;13.370;2023-06-14T08:10:58;22.00;99.90
9772;DHT22;4925;52.588;13.370;2023-06-14T08:13:24;22.00;99.90
9772;DHT22;4925;52.588;13.370;2023-06-14T08:15:50;22.20;99.90
9772;DHT22;4925;52.588;13.370;2023-06-14T08:18:16;22.30;98.90
9772;DHT22;4925;52.588;13.370;2023-06-14T08:20:42;22.30;98.50
9772;DHT22;4925;52.588;13.370;2023-06-14T08:23:07;22.50;98.10
9772;DHT22;4925;52.588;13.370;2023-06-14T08:25:34;22.70;97.60
9772;DHT22;4925;52.588;13.370;2023-06-14T08:28:00;22.90;96.90
9772;DHT22;4925;52.588;13.370;2023-06-14T08:30:26;23.00;96.50
9772;DHT22;4925;52.588;13.370;2023-06-14T08:32:51;23.20;95.90
9772;DHT22;4925;52.588;13.370;2023-06-14T08:35:17;23.30;95.80
9772;DHT22;4925;52.588;13.370;2023-06-14T08:37:43;23.50;95.30
9772;DHT22;4925;52.588;13.370;2023-06-14T08:40:19;23.80;94.50
9772;DHT22;4925;52.588;13.370;2023-06-14T08:42:48;24.10;93.30
9772;DHT22;4925;52.588;13.370;2023-06-14T08:45:15;24.30;92.80
9772;DHT22;4925;52.588;13.370;2023-06-14T08:47:41;24.20;91.80
9772;DHT22;4925;52.588;13.370;2023-06-14T08:50:07;24.40;91.40
9772;DHT22;4925;52.588;13.370;2023-06-14T08:52:38;24.60;90.70
9772;DHT22;4925;52.588;13.370;2023-06-14T08:55:11;24.60;90.50
9772;DHT22;4925;52.588;13.370;2023-06-14T08:57:37;24.50;90.50
9772;DHT22;4925;52.588;13.370;2023-06-14T09:00:04;24.40;90.50
9772;DHT22;4925;52.588;13.370;2023-06-14T09:02:37;24.30;90.50
9772;DHT22;4925;52.588;13.370;2023-06-14T09:05:03;24.10;90.80
9772;DHT22;4925;52.588;13.370;2023-06-14T09:07:29;24.20;91.00
9772;DHT22;4925;52.588;13.370;2023-06-14T09:10:15;24.10;90.60
9772;DHT22;4925;52.588;13.370;2023-06-14T09:12:41;23.80;91.30
9772;DHT22;4925;52.588;13.370;2023-06-14T09:15:08;23.70;91.50
9772;DHT22;4925;52.588;13.370;2023-06-14T09:17:38;23.80;92.00
9772;DHT22;4925;52.588;13.370;2023-06-14T09:20:05;23.70;92.10
9772;DHT22;4925;52.588;13.370;2023-06-14T09:22:33;23.60;91.70
9772;DHT22;4925;52.588;13.370;2023-06-14T09:24:59;23.70;91.60
9772;DHT22;4925;52.588;13.370;2023-06-14T09:27:28;23.60;90.80
9772;DHT22;4925;52.588;13.370;2023-06-14T09:29:54;23.80;90.50
9772;DHT22;4925;52.588;13.370;2023-06-14T09:32:21;23.90;90.40
9772;DHT22;4925;52.588;13.370;2023-06-14T09:34:47;23.90;90.30
9772;DHT22;4925;52.588;13.370;2023-06-14T09:37:27;24.10;90.30
9772;DHT22;4925;52.588;13.370;2023-06-14T09:39:52;24.10;90.00
9772;DHT22;4925;52.588;13.370;2023-06-14T09:42:18;24.10;89.00
9772;DHT22;4925;52.588;13.370;2023-06-14T09:44:47;24.30;89.10
9772;DHT22;4925;52.588;13.370;2023-06-14T09:47:15;24.40;88.10
9772;DHT22;4925;52.588;13.370;2023-06-14T09:49:43;24.40;87.40
9772;DHT22;4925;52.588;13.370;2023-06-14T09:52:14;24.40;87.40
9772;DHT22;4925;52.588;13.370;2023-06-14T09:54:42;24.40;86.20
9772;DHT22;4925;52.588;13.370;2023-06-14T09:57:13;24.30;87.80
9772;DHT22;4925;52.588;13.370;2023-06-14T09:59:46;24.10;87.00
9772;DHT22;4925;52.588;13.370;2023-06-14T10:04:48;23.80;87.30
9772;DHT22;4925;52.588;13.370;2023-06-14T10:07:19;23.60;87.50
9772;DHT22;4925;52.588;13.370;2023-06-14T10:09:47;23.60;88.30
9772;DHT22;4925;52.588;13.370;2023-06-14T10:12:17;23.50;89.50
9772;DHT22;4925;52.588;13.370;2023-06-14T10:14:51;23.70;88.50
9772;DHT22;4925;52.588;13.370;2023-06-14T10:17:32;23.60;88.00
9772;DHT22;4925;52.588;13.370;2023-06-14T10:20:39;23.70;88.40
9772;DHT22;4925;52.588;13.370;2023-06-14T10:23:24;23.90;88.40
9772;DHT22;4925;52.588;13.370;2023-06-14T10:25:54;24.20;88.00
9772;DHT22;4925;52.588;13.370;2023-06-14T10:28:22;24.20;87.00
9772;DHT22;4925;52.588;13.370;2023-06-14T10:31:11;24.20;87.10
9772;DHT22;4925;52.588;13.370;2023-06-14T10:34:12;24.30;86.60
9772;DHT22;4925;52.588;13.370;2023-06-14T10:36:42;24.50;85.90
9772;DHT22;4925;52.588;13.370;2023-06-14T10:39:09;24.60;84.90
9772;DHT22;4925;52.588;13.370;2023-06-14T10:41:37;24.60;84.50
9772;DHT22;4925;52.588;13.370;2023-06-14T10:46:39;25.10;82.60
9772;DHT22;4925;52.588;13.370;2023-06-14T10:49:06;25.60;81.30
9772;DHT22;4925;52.588;13.370;2023-06-14T10:51:41;25.80;80.00
9772;DHT22;4925;52.588;13.370;2023-06-14T10:54:16;25.90;79.50
9772;DHT22;4925;52.588;13.370;2023-06-14T10:59:12;26.00;74.40
9772;DHT22;4925;52.588;13.370;2023-06-14T11:01:49;26.40;73.70
9772;DHT22;4925;52.588;13.370;2023-06-14T11:04:20;26.60;73.00
9772;DHT22;4925;52.588;13.370;2023-06-14T11:06:50;26.90;69.10
9772;DHT22;4925;52.588;13.370;2023-06-14T11:09:36;27.00;68.20
9772;DHT22;4925;52.588;13.370;2023-06-14T11:12:09;27.20;65.80
9772;DHT22;4925;52.588;13.370;2023-06-14T11:14:36;27.20;63.90
9772;DHT22;4925;52.588;13.370;2023-06-14T11:17:01;27.70;61.30
9772;DHT22;4925;52.588;13.370;2023-06-14T11:19:27;28.00;59.50
9772;DHT22;4925;52.588;13.370;2023-06-14T11:21:54;28.30;58.00
9772;DHT22;4925;52.588;13.370;2023-06-14T11:24:20;28.30;55.80
9772;DHT22;4925;52.588;13.370;2023-06-14T11:26:47;28.50;54.80
9772;DHT22;4925;52.588;13.370;2023-06-14T11:29:15;28.90;53.30
9772;DHT22;4925;52.588;13.370;2023-06-14T11:31:44;29.10;51.00
9772;DHT22;4925;52.588;13.370;2023-06-14T11:34:12;29.40;49.80
9772;DHT22;4925;52.588;13.370;2023-06-14T11:36:39;29.70;45.80
9772;DHT22;4925;52.588;13.370;2023-06-14T11:39:06;29.50;45.30
9772;DHT22;4925;52.588;13.370;2023-06-14T11:41:41;29.60;42.70
9772;DHT22;4925;52.588;13.370;2023-06-14T11:44:07;29.50;42.10
9772;DHT22;4925;52.588;13.370;2023-06-14T11:46:33;29.20;40.20
9772;DHT22;4925;52.588;13.370;2023-06-14T11:48:59;28.90;40.90
9772;DHT22;4925;52.588;13.370;2023-06-14T11:51:32;28.70;41.30
9772;DHT22;4925;52.588;13.370;2023-06-14T11:53:58;28.60;41.50
9772;DHT22;4925;52.588;13.370;2023-06-14T11:56:24;28.50;41.70
9772;DHT22;4925;52.588;13.370;2023-06-14T11:58:51;28.30;41.20
9772;DHT22;4925;52.588;13.370;2023-06-14T12:01:17;28.10;39.50
9772;DHT22;4925;52.588;13.370;2023-06-14T12:03:50;27.80;39.00
9772;DHT22;4925;52.588;13.370;2023-06-14T12:06:17;27.70;39.80
9772;DHT22;4925;52.588;13.370;2023-06-14T12:08:51;27.70;40.20
9772;DHT22;4925;52.588;13.370;2023-06-14T12:11:17;27.60;40.30
9772;DHT22;4925;52.588;13.370;2023-06-14T12:13:43;27.40;41.40
9772;DHT22;4925;52.588;13.370;2023-06-14T12:16:11;27.70;41.70
9772;DHT22;4925;52.588;13.370;2023-06-14T12:18:39;28.10;39.80
9772;DHT22;4925;52.588;13.370;2023-06-14T12:21:06;28.10;38.90
9772;DHT22;4925;52.588;13.370;2023-06-14T12:23:44;28.80;38.60
9772;DHT22;4925;52.588;13.370;2023-06-14T12:26:15;29.30;37.00
9772;DHT22;4925;52.588;13.370;2023-06-14T12:28:42;29.70;35.80
9772;DHT22;4925;52.588;13.370;2023-06-14T12:31:08;30.10;34.40
9772;DHT22;4925;52.588;13.370;2023-06-14T12:33:34;30.50;33.40
9772;DHT22;4925;52.588;13.370;2023-06-14T12:36:03;30.60;31.60
9772;DHT22;4925;52.588;13.370;2023-06-14T12:38:29;30.90;31.10
9772;DHT22;4925;52.588;13.370;2023-06-14T12:40:55;30.90;29.20
9772;DHT22;4925;52.588;13.370;2023-06-14T12:43:20;30.40;30.60
9772;DHT22;4925;52.588;13.370;2023-06-14T12:45:46;30.70;29.90
9772;DHT22;4925;52.588;13.370;2023-06-14T12:48:12;31.20;30.00
9772;DHT22;4925;52.588;13.370;2023-06-14T12:50:37;31.80;29.30
9772;DHT22;4925;52.588;13.370;2023-06-14T12:53:03;31.70;27.60
9772;DHT22;4925;52.588;13.370;2023-06-14T12:55:28;32.00;26.80
9772;DHT22;4925;52.588;13.370;2023-06-14T12:57:54;31.90;25.40
9772;DHT22;4925;52.588;13.370;2023-06-14T13:00:20;31.70;24.90
9772;DHT22;4925;52.588;13.370;2023-06-14T13:02:47;31.40;25.40
9772;DHT22;4925;52.588;13.370;2023-06-14T13:05:12;30.90;25.60
9772;DHT22;4925;52.588;13.370;2023-06-14T13:07:38;31.00;25.90
9772;DHT22;4925;52.588;13.370;2023-06-14T13:10:04;31.10;25.90
9772;DHT22;4925;52.588;13.370;2023-06-14T13:12:30;31.00;25.60
9772;DHT22;4925;52.588;13.370;2023-06-14T13:14:55;30.80;25.50
9772;DHT22;4925;52.588;13.370;2023-06-14T13:17:21;30.40;25.70
9772;DHT22;4925;52.588;13.370;2023-06-14T13:19:47;30.30;26.10
9772;DHT22;4925;52.588;13.370;2023-06-14T13:22:12;30.40;26.70
9772;DHT22;4925;52.588;13.370;2023-06-14T13:24:38;30.30;26.40
9772;DHT22;4925;52.588;13.370;2023-06-14T13:27:04;30.40;25.30
9772;DHT22;4925;52.588;13.370;2023-06-14T13:29:29;30.40;24.70
9772;DHT22;4925;52.588;13.370;2023-06-14T13:31:56;30.40;24.00
9772;DHT22;4925;52.588;13.370;2023-06-14T13:34:22;30.10;25.10
9772;DHT22;4925;52.588;13.370;2023-06-14T13:36:49;30.10;26.60
9772;DHT22;4925;52.588;13.370;2023-06-14T13:39:14;30.20;25.30
9772;DHT22;4925;52.588;13.370;2023-06-14T13:41:40;30.10;25.10
9772;DHT22;4925;52.588;13.370;2023-06-14T13:44:06;30.00;24.20
9772;DHT22;4925;52.588;13.370;2023-06-14T13:46:32;29.80;23.70
9772;DHT22;4925;52.588;13.370;2023-06-14T13:48:57;29.20;24.50
9772;DHT22;4925;52.588;13.370;2023-06-14T13:51:23;29.20;24.30
9772;DHT22;4925;52.588;13.370;2023-06-14T13:53:49;29.00;24.20
9772;DHT22;4925;52.588;13.370;2023-06-14T13:56:16;28.80;24.20
9772;DHT22;4925;52.588;13.370;2023-06-14T13:58:42;28.40;24.80
9772;DHT22;4925;52.588;13.370;2023-06-14T14:01:08;28.20;25.20
9772;DHT22;4925;52.588;13.370;2023-06-14T14:03:34;28.00;25.50
9772;DHT22;4925;52.588;13.370;2023-06-14T14:06:01;27.90;26.20
9772;DHT22;4925;52.588;13.370;2023-06-14T14:08:27;27.80;26.10
9772;DHT22;4925;52.588;13.370;2023-06-14T14:10:53;27.60;27.70
9772;DHT22;4925;52.588;13.370;2023-06-14T14:13:19;27.30;29.70
9772;DHT22;4925;52.588;13.370;2023-06-14T14:15:47;27.00;30.70
9772;DHT22;4925;52.588;13.370;2023-06-14T14:18:14;26.70;31.30
9772;DHT22;4925;52.588;13.370;2023-06-14T14:20:40;26.60;32.10
9772;DHT22;4925;52.588;13.370;2023-06-14T14:23:06;26.40;32.80
9772;DHT22;4925;52.588;13.370;2023-06-14T14:25:32;26.30;33.30
9772;DHT22;4925;52.588;13.370;2023-06-14T14:27:58;26.00;33.40
9772;DHT22;4925;52.588;13.370;2023-06-14T14:30:23;25.90;34.40
9772;DHT22;4925;52.588;13.370;2023-06-14T14:32:52;25.70;35.00
9772;DHT22;4925;52.588;13.370;2023-06-14T14:35:18;25.70;35.70
9772;DHT22;4925;52.588;13.370;2023-06-14T14:37:44;25.60;36.10
9772;DHT22;4925;52.588;13.370;2023-06-14T14:40:11;25.70;36.70
9772;DHT22;4925;52.588;13.370;2023-06-14T14:42:37;25.70;37.00
9772;DHT22;4925;52.588;13.370;2023-06-14T14:45:03;25.80;37.00
9772;DHT22;4925;52.588;13.370;2023-06-14T14:47:28;25.70;36.60
9772;DHT22;4925;52.588;13.370;2023-06-14T14:49:54;25.60;37.20
9772;DHT22;4925;52.588;13.370;2023-06-14T14:52:20;25.50;37.90
9772;DHT22;4925;52.588;13.370;2023-06-14T14:54:46;25.30;38.10
9772;DHT22;4925;52.588;13.370;2023-06-14T14:57:11;25.20;38.70
9772;DHT22;4925;52.588;13.370;2023-06-14T14:59:37;25.10;39.20
9772;DHT22;4925;52.588;13.370;2023-06-14T15:02:03;25.10;39.30
9772;DHT22;4925;52.588;13.370;2023-06-14T15:04:29;25.00;39.20
9772;DHT22;4925;52.588;13.370;2023-06-14T15:06:54;25.00;39.80
9772;DHT22;4925;52.588;13.370;2023-06-14T15:09:20;24.90;40.00
9772;DHT22;4925;52.588;13.370;2023-06-14T15:11:45;24.90;40.10
9772;DHT22;4925;52.588;13.370;2023-06-14T15:14:11;24.90;40.30
9772;DHT22;4925;52.588;13.370;2023-06-14T15:16:37;24.90;40.10
9772;DHT22;4925;52.588;13.370;2023-06-14T15:19:03;24.90;40.40
9772;DHT22;4925;52.588;13.370;2023-06-14T15:21:28;24.80;40.50
9772;DHT22;4925;52.588;13.370;2023-06-14T15:23:54;24.70;40.50
9772;DHT22;4925;52.588;13.370;2023-06-14T15:26:20;24.70;40.60
9772;DHT22;4925;52.588;13.370;2023-06-14T15:28:46;24.70;40.90
9772;DHT22;4925;52.588;13.370;2023-06-14T15:31:11;24.80;41.30
9772;DHT22;4925;52.588;13.370;2023-06-14T15:33:37;24.70;40.90
9772;DHT22;4925;52.588;13.370;2023-06-14T15:36:03;24.70;41.40
9772;DHT22;4925;52.588;13.370;2023-06-14T15:38:29;24.70;41.00
9772;DHT22;4925;52.588;13.370;2023-06-14T15:40:55;24.80;41.10
9772;DHT22;4925;52.588;13.370;2023-06-14T15:43:21;24.80;40.70
9772;DHT22;4925;52.588;13.370;2023-06-14T15:45:48;24.80;41.00
9772;DHT22;4925;52.588;13.370;2023-06-14T15:48:14;24.80;40.40
9772;DHT22;4925;52.588;13.370;2023-06-14T15:50:40;24.70;40.80
9772;DHT22;4925;52.588;13.370;2023-06-14T15:53:05;25.00;39.70
9772;DHT22;4925;52.588;13.370;2023-06-14T15:55:31;25.10;40.00
9772;DHT22;4925;52.588;13.370;2023-06-14T15:57:57;25.30;39.60
9772;DHT22;4925;52.588;13.370;2023-06-14T16:00:22;25.50;39.10